createdAt,value
2018-12-17T00:00:40.717Z,90.00
2018-12-17T00:03:07.005Z,90.20
2018-12-17T00:05:33.535Z,90.40
2018-12-17T00:08:00.043Z,90.50
2018-12-17T00:10:26.297Z,90.60
2018-12-17T00:12:52.562Z,90.60
2018-12-17T00:15:18.858Z,90.40
2018-12-17T00:17:45.140Z,90.10
2018-12-17T00:20:11.555Z,89.30
2018-12-17T00:22:37.816Z,89.30
2018-12-17T00:25:04.620Z,88.70
2018-12-17T00:27:30.841Z,87.00
2018-12-17T00:29:57.142Z,87.30
2018-12-17T00:32:23.380Z,87.70
2018-12-17T00:34:49.661Z,87.60
2018-12-17T00:37:15.910Z,87.40
2018-12-17T00:39:42.186Z,87.20
2018-12-17T00:42:08.455Z,87.20
2018-12-17T00:44:34.813Z,87.50
2018-12-17T00:47:01.154Z,87.50
2018-12-17T00:49:27.474Z,87.50
2018-12-17T00:51:53.760Z,88.00
2018-12-17T00:54:20.036Z,88.10
2018-12-17T00:56:46.331Z,87.90
2018-12-17T00:59:12.609Z,87.90
2018-12-17T01:01:38.866Z,87.90
2018-12-17T01:04:05.189Z,88.50
2018-12-17T01:06:31.473Z,88.80
2018-12-17T01:08:57.804Z,88.80
2018-12-17T01:11:24.072Z,88.90
2018-12-17T01:13:50.371Z,89.40
2018-12-17T01:16:16.630Z,89.70
2018-12-17T01:18:42.992Z,89.90
2018-12-17T01:21:09.219Z,90.10
2018-12-17T01:23:35.463Z,90.10
2018-12-17T01:26:01.774Z,90.10
2018-12-17T01:28:28.047Z,90.10
2018-12-17T01:30:54.354Z,90.30
2018-12-17T01:33:20.640Z,90.30
2018-12-17T01:35:46.937Z,90.50
2018-12-17T01:38:13.238Z,90.40
2018-12-17T01:40:39.532Z,90.10
2018-12-17T01:43:05.962Z,90.00
2018-12-17T01:45:32.247Z,90.10
2018-12-17T01:47:59.639Z,90.10
2018-12-17T01:50:25.919Z,89.30
2018-12-17T01:52:52.185Z,88.80
2018-12-17T01:55:18.409Z,89.20
2018-12-17T01:57:44.729Z,89.80
2018-12-17T02:00:11.120Z,89.90
2018-12-17T02:02:37.434Z,89.30
2018-12-17T02:05:03.931Z,88.80
2018-12-17T02:07:30.237Z,88.40
2018-12-17T02:09:56.600Z,88.20
2018-12-17T02:12:22.870Z,88.40
2018-12-17T02:14:49.174Z,88.30
2018-12-17T02:17:15.443Z,88.20
2018-12-17T02:19:41.701Z,87.70
2018-12-17T02:22:07.976Z,87.80
2018-12-17T02:24:34.311Z,88.30
2018-12-17T02:27:00.540Z,88.40
2018-12-17T02:29:26.816Z,88.60
2018-12-17T02:31:53.106Z,88.30
2018-12-17T02:34:19.386Z,87.70
2018-12-17T02:36:45.673Z,87.00
2018-12-17T02:39:11.948Z,86.70
2018-12-17T02:41:38.207Z,86.80
2018-12-17T02:44:04.929Z,86.80
2018-12-17T02:46:31.225Z,86.10
2018-12-17T02:48:57.509Z,85.90
2018-12-17T02:51:23.812Z,85.60
2018-12-17T02:53:50.163Z,85.90
2018-12-17T02:56:16.465Z,85.70
2018-12-17T02:58:44.130Z,84.90
2018-12-17T03:01:10.672Z,85.00
2018-12-17T03:03:37.034Z,84.60
2018-12-17T03:06:03.432Z,84.60
2018-12-17T03:08:29.698Z,84.90
2018-12-17T03:10:55.940Z,85.30
2018-12-17T03:13:22.199Z,85.60
2018-12-17T03:15:48.461Z,85.90
2018-12-17T03:18:14.750Z,86.00
2018-12-17T03:20:41.068Z,85.60
2018-12-17T03:23:07.349Z,86.00
2018-12-17T03:25:33.644Z,85.80
2018-12-17T03:27:59.884Z,85.10
2018-12-17T03:30:26.135Z,85.40
2018-12-17T03:32:52.379Z,86.20
2018-12-17T03:35:18.770Z,86.90
2018-12-17T03:37:45.017Z,87.10
2018-12-17T03:40:11.302Z,86.10
2018-12-17T03:42:37.600Z,85.40
2018-12-17T03:45:04.010Z,85.40
2018-12-17T03:47:30.302Z,85.10
2018-12-17T03:49:56.588Z,85.20
2018-12-17T03:52:22.928Z,84.80
2018-12-17T03:54:49.197Z,85.10
2018-12-17T03:57:15.453Z,85.80
2018-12-17T03:59:41.776Z,84.50
2018-12-17T04:02:08.078Z,83.70
2018-12-17T04:04:34.365Z,83.60
2018-12-17T04:07:01.702Z,84.40
2018-12-17T04:09:28.031Z,84.80
2018-12-17T04:11:54.394Z,84.70
2018-12-17T04:14:20.712Z,83.90
2018-12-17T04:16:47.059Z,83.70
2018-12-17T04:19:13.329Z,83.40
2018-12-17T04:21:39.633Z,84.00
2018-12-17T04:24:05.955Z,84.70
2018-12-17T04:26:32.338Z,85.40
2018-12-17T04:28:58.616Z,85.00
2018-12-17T04:31:24.993Z,85.00
2018-12-17T04:33:51.307Z,84.30
2018-12-17T04:36:17.574Z,83.20
2018-12-17T04:38:43.914Z,82.90
2018-12-17T04:41:10.212Z,83.20
2018-12-17T04:43:36.495Z,83.50
2018-12-17T04:46:02.888Z,83.20
2018-12-17T04:48:30.218Z,83.70
2018-12-17T04:50:56.489Z,83.20
2018-12-17T04:53:22.827Z,82.90
2018-12-17T04:55:49.062Z,83.00
2018-12-17T04:58:15.363Z,81.80
2018-12-17T05:00:41.658Z,81.30
2018-12-17T05:03:07.972Z,82.00
2018-12-17T05:05:34.279Z,82.10
2018-12-17T05:08:00.546Z,82.10
2018-12-17T05:10:26.884Z,82.10
2018-12-17T05:12:53.192Z,82.00
2018-12-17T05:15:19.506Z,81.60
2018-12-17T05:17:45.782Z,81.50
2018-12-17T05:20:12.123Z,81.90
2018-12-17T05:22:38.423Z,81.60
2018-12-17T05:25:05.145Z,81.70
2018-12-17T05:27:31.442Z,82.40
2018-12-17T05:29:57.872Z,82.80
2018-12-17T05:32:24.385Z,83.30
2018-12-17T05:34:50.649Z,83.30
2018-12-17T05:37:16.942Z,82.90
2018-12-17T05:39:43.251Z,82.80
2018-12-17T05:42:09.511Z,83.30
2018-12-17T05:44:35.770Z,83.40
2018-12-17T05:47:02.052Z,83.90
2018-12-17T05:49:28.323Z,83.80
2018-12-17T05:51:54.627Z,83.30
2018-12-17T05:54:20.924Z,82.90
2018-12-17T05:56:47.217Z,82.60
2018-12-17T05:59:13.539Z,81.90
2018-12-17T06:01:39.852Z,82.00
2018-12-17T06:04:06.106Z,82.40
2018-12-17T06:06:32.399Z,82.70
2018-12-17T06:08:58.720Z,82.30
2018-12-17T06:11:25.054Z,82.40
2018-12-17T06:13:51.353Z,82.70
2018-12-17T06:16:17.835Z,82.60
2018-12-17T06:18:44.369Z,81.80
2018-12-17T06:21:10.592Z,81.60
2018-12-17T06:23:36.850Z,82.10
2018-12-17T06:26:03.129Z,82.10
2018-12-17T06:28:29.462Z,81.70
2018-12-17T06:30:55.764Z,81.60
2018-12-17T06:33:22.090Z,81.80
2018-12-17T06:35:48.389Z,82.30
2018-12-17T06:38:14.662Z,83.10
2018-12-17T06:40:40.981Z,83.50
2018-12-17T06:43:07.245Z,82.90
2018-12-17T06:45:33.518Z,83.10
2018-12-17T06:47:59.785Z,83.10
2018-12-17T06:50:26.293Z,82.40
2018-12-17T06:52:52.623Z,82.10
2018-12-17T06:55:18.885Z,82.00
2018-12-17T06:57:45.635Z,82.50
2018-12-17T07:00:12.029Z,83.20
2018-12-17T07:02:38.279Z,83.60
2018-12-17T07:05:04.815Z,83.80
2018-12-17T07:07:31.133Z,82.70
2018-12-17T07:09:57.375Z,81.60
2018-12-17T07:12:23.741Z,81.40
2018-12-17T07:14:49.968Z,81.60
2018-12-17T07:17:16.229Z,81.30
2018-12-17T07:19:42.622Z,80.90
2018-12-17T07:22:08.921Z,80.60
2018-12-17T07:24:35.208Z,80.70
2018-12-17T07:27:01.575Z,81.00
2018-12-17T07:29:27.836Z,81.80
2018-12-17T07:31:54.118Z,82.00
2018-12-17T07:34:20.532Z,81.70
2018-12-17T07:36:46.835Z,81.20
2018-12-17T07:39:13.119Z,81.10
2018-12-17T07:41:39.385Z,81.40
2018-12-17T07:44:05.678Z,81.70
2018-12-17T07:46:32.092Z,82.30
2018-12-17T07:48:58.392Z,82.70
2018-12-17T07:51:24.685Z,83.10
2018-12-17T07:53:51.376Z,83.90
2018-12-17T07:56:17.658Z,84.80
2018-12-17T07:58:43.933Z,84.90
2018-12-17T08:01:10.209Z,85.10
2018-12-17T08:03:36.474Z,85.10
2018-12-17T08:06:03.077Z,85.30
2018-12-17T08:08:35.315Z,85.30
2018-12-17T08:10:57.766Z,85.50
2018-12-17T08:13:24.413Z,85.40
2018-12-17T08:15:50.824Z,85.50
2018-12-17T08:18:20.539Z,85.60
2018-12-17T08:20:47.463Z,85.50
2018-12-17T08:23:13.707Z,85.60
2018-12-17T08:25:39.982Z,85.50
2018-12-17T08:28:06.255Z,85.20
2018-12-17T08:30:32.518Z,85.30
2018-12-17T08:32:58.817Z,85.70
2018-12-17T08:35:25.164Z,85.10
2018-12-17T08:37:51.441Z,85.30
2018-12-17T08:40:17.728Z,85.00
2018-12-17T08:42:43.975Z,84.90
2018-12-17T08:45:10.323Z,84.80
2018-12-17T08:47:36.572Z,85.20
2018-12-17T08:50:03.912Z,85.90
2018-12-17T08:52:30.175Z,86.20
2018-12-17T08:54:56.672Z,86.70
2018-12-17T08:57:22.932Z,87.10
2018-12-17T08:59:49.175Z,87.60
2018-12-17T09:02:15.466Z,88.30
2018-12-17T09:04:41.752Z,89.00
2018-12-17T09:07:08.034Z,89.80
2018-12-17T09:09:34.338Z,89.70
2018-12-17T09:12:00.571Z,89.70
2018-12-17T09:14:26.862Z,90.00
2018-12-17T09:16:53.119Z,89.90
2018-12-17T09:19:19.401Z,90.00
2018-12-17T09:21:45.725Z,89.40
2018-12-17T09:24:12.004Z,88.80
2018-12-17T09:26:38.256Z,89.90
2018-12-17T09:29:04.599Z,90.10
2018-12-17T09:31:30.876Z,89.20
2018-12-17T09:33:57.156Z,88.50
2018-12-17T09:36:23.478Z,88.70
2018-12-17T09:38:49.730Z,88.50
2018-12-17T09:41:16.029Z,88.60
2018-12-17T09:43:42.297Z,88.60
2018-12-17T09:46:08.711Z,88.60
2018-12-17T09:48:34.957Z,88.60
2018-12-17T09:51:01.256Z,88.40
2018-12-17T09:53:27.565Z,88.20
2018-12-17T09:55:53.884Z,88.40
2018-12-17T09:58:20.180Z,87.70
2018-12-17T10:00:46.487Z,87.40
2018-12-17T10:03:12.805Z,87.40
2018-12-17T10:05:39.036Z,86.90
2018-12-17T10:08:05.341Z,87.60
2018-12-17T10:10:31.596Z,88.40
2018-12-17T10:12:57.892Z,89.40
2018-12-17T10:15:24.657Z,90.00
2018-12-17T10:17:50.902Z,90.30
2018-12-17T10:20:17.204Z,90.40
2018-12-17T10:22:43.511Z,90.70
2018-12-17T10:25:09.796Z,90.80
2018-12-17T10:27:36.070Z,91.10
2018-12-17T10:30:03.273Z,91.30
2018-12-17T10:32:29.544Z,91.80
2018-12-17T10:34:55.791Z,91.80
2018-12-17T10:37:22.087Z,91.80
2018-12-17T10:39:48.415Z,91.80
2018-12-17T10:42:14.671Z,91.90
2018-12-17T10:44:41.039Z,92.20
2018-12-17T10:47:07.330Z,92.50
2018-12-17T10:49:33.635Z,92.60
2018-12-17T10:51:59.986Z,92.70
2018-12-17T10:54:26.350Z,92.80
2018-12-17T10:56:52.617Z,92.70
2018-12-17T10:59:18.869Z,92.50
2018-12-17T11:01:52.023Z,92.40
2018-12-17T11:04:18.333Z,92.60
2018-12-17T11:06:44.764Z,92.50
2018-12-17T11:09:11.093Z,92.30
2018-12-17T11:11:37.342Z,92.50
2018-12-17T11:14:03.663Z,92.30
2018-12-17T11:16:29.945Z,92.40
2018-12-17T11:18:56.209Z,92.20
2018-12-17T11:21:22.538Z,92.10
2018-12-17T11:23:48.796Z,92.00
2018-12-17T11:26:15.083Z,91.90
2018-12-17T11:28:41.349Z,91.80
2018-12-17T11:31:07.609Z,91.80
2018-12-17T11:33:33.906Z,91.80
2018-12-17T11:36:00.276Z,91.80
2018-12-17T11:38:26.534Z,91.80
2018-12-17T11:40:52.843Z,91.60
2018-12-17T11:43:19.118Z,91.40
2018-12-17T11:45:45.750Z,91.20
2018-12-17T11:48:11.981Z,91.10
2018-12-17T11:50:38.286Z,91.00
2018-12-17T11:53:04.549Z,90.90
2018-12-17T11:55:30.874Z,90.80
2018-12-17T11:58:08.368Z,90.80
2018-12-17T12:00:34.876Z,90.70
2018-12-17T12:03:01.141Z,90.60
2018-12-17T12:05:27.381Z,90.40
2018-12-17T12:07:53.656Z,90.40
2018-12-17T12:10:19.920Z,90.40
2018-12-17T12:12:46.163Z,90.50
2018-12-17T12:15:12.472Z,90.40
2018-12-17T12:17:38.752Z,90.30
2018-12-17T12:20:05.244Z,90.30
2018-12-17T12:22:32.725Z,90.30
2018-12-17T12:24:59.146Z,90.20
2018-12-17T12:27:25.574Z,90.30
2018-12-17T12:29:52.066Z,90.40
2018-12-17T12:32:18.463Z,90.40
2018-12-17T12:34:44.695Z,90.50
2018-12-17T12:37:10.988Z,90.40
2018-12-17T12:39:37.201Z,90.40
2018-12-17T12:42:03.458Z,90.50
2018-12-17T12:44:29.708Z,90.40
2018-12-17T12:46:55.962Z,90.50
2018-12-17T12:49:29.152Z,90.40
2018-12-17T12:51:55.463Z,90.50
2018-12-17T12:54:21.796Z,90.50
2018-12-17T12:56:48.065Z,90.50
2018-12-17T12:59:14.384Z,90.40
2018-12-17T13:01:40.634Z,90.40
2018-12-17T13:04:06.927Z,90.70
2018-12-17T13:06:33.175Z,90.40
2018-12-17T13:08:59.434Z,90.30
2018-12-17T13:11:25.733Z,90.20
2018-12-17T13:13:51.980Z,90.10
2018-12-17T13:16:18.220Z,90.20
2018-12-17T13:18:44.501Z,90.20
2018-12-17T13:21:10.775Z,90.20
2018-12-17T13:23:37.036Z,90.10
2018-12-17T13:26:03.293Z,90.20
2018-12-17T13:28:29.540Z,90.20
2018-12-17T13:30:55.777Z,90.00
2018-12-17T13:33:22.060Z,90.10
2018-12-17T13:35:48.295Z,90.00
2018-12-17T13:38:14.590Z,90.00
2018-12-17T13:40:40.845Z,90.10
2018-12-17T13:43:07.080Z,90.10
2018-12-17T13:45:33.382Z,90.20
2018-12-17T13:47:59.680Z,90.10
2018-12-17T13:50:32.907Z,90.10
2018-12-17T13:53:01.224Z,90.00
2018-12-17T13:55:27.504Z,90.00
2018-12-17T13:57:53.819Z,90.00
2018-12-17T14:00:20.197Z,89.90
2018-12-17T14:02:46.449Z,89.90
2018-12-17T14:05:12.741Z,90.00
2018-12-17T14:07:39.022Z,89.80
2018-12-17T14:10:12.897Z,89.90
2018-12-17T14:12:39.157Z,89.70
2018-12-17T14:15:05.436Z,89.70
2018-12-17T14:17:35.671Z,89.50
2018-12-17T14:20:10.624Z,89.20
2018-12-17T14:22:36.905Z,89.30
2018-12-17T14:25:03.804Z,89.50
2018-12-17T14:27:30.116Z,89.50
2018-12-17T14:29:56.438Z,89.40
2018-12-17T14:32:22.751Z,89.30
2018-12-17T14:34:49.071Z,89.30
2018-12-17T14:37:15.370Z,89.30
2018-12-17T14:39:41.600Z,89.20
2018-12-17T14:42:07.853Z,89.30
2018-12-17T14:44:34.249Z,89.60
2018-12-17T14:47:00.823Z,89.50
2018-12-17T14:49:27.161Z,89.60
2018-12-17T14:51:53.579Z,89.50
2018-12-17T14:54:20.069Z,89.60
2018-12-17T14:56:46.311Z,89.80
2018-12-17T14:59:12.599Z,89.80
2018-12-17T15:01:38.902Z,89.80
2018-12-17T15:04:05.165Z,90.00
2018-12-17T15:06:31.432Z,90.30
2018-12-17T15:08:57.712Z,89.90
2018-12-17T15:11:24.029Z,90.00
2018-12-17T15:13:50.302Z,90.00
2018-12-17T15:16:16.576Z,90.00
2018-12-17T15:18:42.853Z,90.00
2018-12-17T15:21:09.089Z,90.10
2018-12-17T15:23:35.409Z,89.80
2018-12-17T15:26:01.920Z,89.50
2018-12-17T15:28:28.348Z,89.50
2018-12-17T15:30:54.832Z,89.60
2018-12-17T15:33:21.135Z,89.90
2018-12-17T15:35:47.420Z,90.00
2018-12-17T15:38:13.665Z,90.00
2018-12-17T15:40:39.978Z,90.00
2018-12-17T15:43:06.395Z,90.30
2018-12-17T15:45:32.784Z,90.40
2018-12-17T15:47:59.043Z,90.40
2018-12-17T15:50:25.337Z,90.30
2018-12-17T15:52:51.583Z,90.40
2018-12-17T15:55:17.820Z,90.40
2018-12-17T15:57:44.137Z,90.50
2018-12-17T16:00:10.598Z,90.50
2018-12-17T16:02:36.881Z,90.50
2018-12-17T16:05:03.399Z,90.70
2018-12-17T16:07:29.654Z,90.70
2018-12-17T16:09:55.908Z,90.60
2018-12-17T16:12:22.276Z,90.00
2018-12-17T16:14:48.579Z,89.70
2018-12-17T16:17:14.872Z,89.60
2018-12-17T16:19:41.141Z,89.80
2018-12-17T16:22:07.466Z,90.00
2018-12-17T16:24:33.875Z,90.00
2018-12-17T16:27:00.153Z,90.00
2018-12-17T16:29:26.470Z,90.60
2018-12-17T16:31:57.232Z,91.00
2018-12-17T16:34:21.128Z,90.70
2018-12-17T16:36:47.618Z,90.50
2018-12-17T16:39:13.893Z,90.60
2018-12-17T16:41:40.167Z,90.80
2018-12-17T16:44:06.494Z,91.10
2018-12-17T16:46:32.784Z,91.10
2018-12-17T16:48:59.116Z,91.30
2018-12-17T16:51:25.424Z,91.20
2018-12-17T16:53:51.688Z,91.60
2018-12-17T16:56:17.943Z,91.90
2018-12-17T16:58:44.248Z,91.80
2018-12-17T17:01:10.448Z,91.80
2018-12-17T17:03:36.867Z,91.80
2018-12-17T17:06:03.318Z,91.80
2018-12-17T17:08:29.614Z,91.70
2018-12-17T17:10:55.918Z,91.90
2018-12-17T17:13:22.326Z,91.80
2018-12-17T17:15:48.642Z,91.70
2018-12-17T17:18:14.924Z,91.60
2018-12-17T17:20:41.243Z,91.50
2018-12-17T17:23:07.546Z,91.70
2018-12-17T17:25:33.805Z,92.20
2018-12-17T17:28:00.318Z,91.80
2018-12-17T17:30:26.601Z,91.50
2018-12-17T17:32:52.851Z,91.50
2018-12-17T17:35:19.141Z,91.60
2018-12-17T17:37:45.392Z,91.50
2018-12-17T17:40:11.712Z,91.40
2018-12-17T17:42:37.973Z,91.30
2018-12-17T17:45:04.539Z,91.40
2018-12-17T17:47:30.842Z,91.40
2018-12-17T17:49:57.274Z,91.30
2018-12-17T17:52:23.544Z,91.20
2018-12-17T17:54:49.866Z,91.00
2018-12-17T17:57:16.126Z,90.90
2018-12-17T17:59:42.480Z,91.00
2018-12-17T18:02:08.750Z,91.00
2018-12-17T18:04:34.996Z,90.90
2018-12-17T18:07:01.334Z,91.00
2018-12-17T18:09:27.577Z,91.00
2018-12-17T18:11:53.870Z,91.00
2018-12-17T18:14:20.123Z,91.00
2018-12-17T18:16:46.766Z,91.10
2018-12-17T18:19:13.000Z,90.90
2018-12-17T18:21:39.244Z,90.70
2018-12-17T18:24:05.507Z,90.90
2018-12-17T18:26:31.779Z,90.90
2018-12-17T18:28:58.035Z,90.90
2018-12-17T18:31:24.501Z,90.90
2018-12-17T18:33:50.796Z,90.90
2018-12-17T18:36:17.101Z,90.80
2018-12-17T18:38:43.381Z,90.80
2018-12-17T18:41:09.612Z,90.80
2018-12-17T18:43:35.894Z,90.70
2018-12-17T18:46:02.175Z,90.60
2018-12-17T18:48:28.616Z,90.30
2018-12-17T18:50:54.883Z,90.40
2018-12-17T18:53:21.183Z,90.30
2018-12-17T18:55:47.501Z,90.30
2018-12-17T18:58:13.795Z,90.60
2018-12-17T19:00:40.096Z,90.60
2018-12-17T19:03:06.621Z,90.60
2018-12-17T19:05:33.755Z,90.70
2018-12-17T19:08:00.012Z,90.80
2018-12-17T19:10:28.282Z,90.90
2018-12-17T19:12:54.545Z,90.80
2018-12-17T19:15:20.798Z,90.70
2018-12-17T19:17:47.119Z,90.70
2018-12-17T19:20:13.356Z,90.70
2018-12-17T19:22:39.604Z,90.60
2018-12-17T19:25:05.991Z,90.60
2018-12-17T19:27:32.248Z,90.60
2018-12-17T19:29:58.519Z,90.60
2018-12-17T19:32:24.812Z,90.60
2018-12-17T19:34:51.076Z,90.50
2018-12-17T19:37:17.398Z,90.40
2018-12-17T19:39:43.697Z,90.50
2018-12-17T19:42:09.964Z,90.50
2018-12-17T19:44:36.210Z,90.50
2018-12-17T19:47:02.522Z,90.50
2018-12-17T19:49:28.819Z,90.60
2018-12-17T19:51:55.076Z,90.60
2018-12-17T19:54:21.332Z,90.70
2018-12-17T19:56:47.584Z,90.50
2018-12-17T19:59:13.897Z,90.60
2018-12-17T20:01:40.242Z,90.50
2018-12-17T20:04:06.529Z,90.50
2018-12-17T20:06:32.853Z,90.50
2018-12-17T20:08:59.172Z,90.60
2018-12-17T20:11:25.450Z,90.60
2018-12-17T20:13:51.667Z,90.50
2018-12-17T20:16:17.980Z,90.40
2018-12-17T20:18:44.337Z,90.40
2018-12-17T20:21:10.591Z,90.20
2018-12-17T20:23:37.409Z,90.10
2018-12-17T20:26:03.659Z,90.10
2018-12-17T20:28:29.939Z,90.00
2018-12-17T20:30:56.218Z,90.00
2018-12-17T20:33:22.503Z,90.30
2018-12-17T20:35:48.752Z,90.20
2018-12-17T20:38:15.113Z,90.00
2018-12-17T20:40:41.386Z,89.70
2018-12-17T20:43:07.675Z,90.00
2018-12-17T20:45:33.947Z,89.40
2018-12-17T20:48:00.179Z,89.20
2018-12-17T20:50:26.585Z,89.10
2018-12-17T20:52:52.846Z,89.10
2018-12-17T20:55:19.093Z,89.70
2018-12-17T20:57:45.383Z,90.00
2018-12-17T21:00:11.711Z,90.20
2018-12-17T21:02:38.107Z,90.20
2018-12-17T21:05:04.621Z,90.30
2018-12-17T21:07:30.900Z,90.40
2018-12-17T21:09:57.183Z,90.70
2018-12-17T21:12:23.436Z,90.60
2018-12-17T21:14:49.746Z,90.40
2018-12-17T21:17:16.083Z,90.60
2018-12-17T21:19:42.416Z,90.50
2018-12-17T21:22:08.851Z,90.60
2018-12-17T21:24:35.086Z,90.70
2018-12-17T21:27:01.403Z,91.10
2018-12-17T21:29:27.663Z,91.10
2018-12-17T21:31:54.014Z,91.00
2018-12-17T21:34:20.280Z,91.10
2018-12-17T21:36:46.539Z,91.10
2018-12-17T21:39:12.852Z,91.00
2018-12-17T21:41:39.148Z,90.90
2018-12-17T21:44:05.416Z,90.90
2018-12-17T21:46:31.692Z,90.80
2018-12-17T21:48:57.974Z,90.70
2018-12-17T21:51:24.270Z,90.70
2018-12-17T21:53:50.555Z,90.50
2018-12-17T21:56:16.964Z,90.30
2018-12-17T21:58:43.267Z,90.30
2018-12-17T22:01:09.695Z,90.20
2018-12-17T22:03:35.955Z,90.10
2018-12-17T22:06:02.256Z,90.10
2018-12-17T22:08:28.488Z,90.00
2018-12-17T22:10:54.833Z,89.90
2018-12-17T22:13:21.161Z,89.70
2018-12-17T22:15:47.481Z,89.90
2018-12-17T22:18:13.717Z,90.00
2018-12-17T22:20:40.032Z,90.10
2018-12-17T22:23:06.471Z,90.30
2018-12-17T22:25:32.753Z,90.50
2018-12-17T22:27:59.065Z,90.50
2018-12-17T22:30:25.348Z,90.40
2018-12-17T22:32:51.661Z,90.40
2018-12-17T22:35:17.950Z,90.20
2018-12-17T22:37:45.293Z,90.20
2018-12-17T22:40:11.587Z,90.40
2018-12-17T22:42:37.888Z,90.40
2018-12-17T22:45:04.578Z,90.30
2018-12-17T22:47:30.864Z,90.40
2018-12-17T22:49:57.268Z,90.30
2018-12-17T22:52:23.563Z,90.20
2018-12-17T22:54:49.865Z,90.10
2018-12-17T22:57:16.159Z,90.10
2018-12-17T22:59:42.539Z,90.00
2018-12-17T23:02:08.856Z,89.40
2018-12-17T23:04:35.130Z,89.30
2018-12-17T23:07:01.409Z,89.10
2018-12-17T23:09:39.921Z,88.60
2018-12-17T23:12:18.262Z,88.40
2018-12-17T23:14:56.735Z,88.30
2018-12-17T23:17:35.140Z,88.90
2018-12-17T23:20:01.501Z,88.60
2018-12-17T23:22:27.844Z,88.50
2018-12-17T23:24:54.138Z,88.00
2018-12-17T23:27:20.397Z,87.50
2018-12-17T23:29:46.704Z,87.50
2018-12-17T23:32:12.977Z,88.10
2018-12-17T23:34:39.295Z,88.90
2018-12-17T23:37:05.553Z,88.00
2018-12-17T23:39:31.824Z,87.30
2018-12-17T23:41:58.072Z,87.30
2018-12-17T23:44:24.556Z,86.80
2018-12-17T23:46:50.900Z,86.90
2018-12-17T23:49:17.194Z,87.20
2018-12-17T23:51:43.643Z,87.70
2018-12-17T23:54:09.927Z,87.50
2018-12-17T23:56:36.192Z,87.30
2018-12-17T23:59:02.727Z,87.40
